sensor_id;sensor_type;location;lat;lon;timestamp;temperature;humidity
15930;DHT22;8064;51.142;4.780;2023-04-24T00:00:02;10.50;99.90
15930;DHT22;8064;51.142;4.780;2023-04-24T00:02:31;10.60;99.90
15930;DHT22;8064;51.142;4.780;2023-04-24T00:04:58;10.50;99.90
15930;DHT22;8064;51.142;4.780;2023-04-24T00:07:28;10.50;99.90
15930;DHT22;8064;51.142;4.780;2023-04-24T00:09:54;10.50;99.90
15930;DHT22;8064;51.142;4.780;2023-04-24T00:12:20;10.50;99.90
15930;DHT22;8064;51.142;4.780;2023-04-24T00:14:46;10.50;99.90
15930;DHT22;8064;51.142;4.780;2023-04-24T00:17:12;10.50;99.90
15930;DHT22;8064;51.142;4.780;2023-04-24T00:19:38;10.50;99.90
15930;DHT22;8064;51.142;4.780;2023-04-24T00:22:05;10.50;99.90
15930;DHT22;8064;51.142;4.780;2023-04-24T00:24:32;10.50;99.90
15930;DHT22;8064;51.142;4.780;2023-04-24T00:26:58;10.50;99.90
15930;DHT22;8064;51.142;4.780;2023-04-24T00:29:23;10.50;99.90
15930;DHT22;8064;51.142;4.780;2023-04-24T00:31:49;10.50;99.90
15930;DHT22;8064;51.142;4.780;2023-04-24T00:34:15;10.50;99.90
15930;DHT22;8064;51.142;4.780;2023-04-24T00:36:41;10.50;99.90
15930;DHT22;8064;51.142;4.780;2023-04-24T00:39:07;10.50;99.90
15930;DHT22;8064;51.142;4.780;2023-04-24T00:41:43;10.50;99.90
15930;DHT22;8064;51.142;4.780;2023-04-24T00:44:09;10.50;99.90
15930;DHT22;8064;51.142;4.780;2023-04-24T00:46:35;10.50;99.90
15930;DHT22;8064;51.142;4.780;2023-04-24T00:49:02;10.50;99.90
15930;DHT22;8064;51.142;4.780;2023-04-24T00:51:28;10.50;99.90
15930;DHT22;8064;51.142;4.780;2023-04-24T00:53:54;10.50;99.90
15930;DHT22;8064;51.142;4.780;2023-04-24T00:56:20;10.50;99.90
15930;DHT22;8064;51.142;4.780;2023-04-24T00:58:45;10.50;99.90
15930;DHT22;8064;51.142;4.780;2023-04-24T01:01:12;10.50;99.90
15930;DHT22;8064;51.142;4.780;2023-04-24T01:03:38;10.50;99.90
15930;DHT22;8064;51.142;4.780;2023-04-24T01:06:05;10.50;99.90
15930;DHT22;8064;51.142;4.780;2023-04-24T01:08:31;10.50;99.90
15930;DHT22;8064;51.142;4.780;2023-04-24T01:10:57;10.50;99.90
15930;DHT22;8064;51.142;4.780;2023-04-24T01:13:24;10.50;99.90
15930;DHT22;8064;51.142;4.780;2023-04-24T01:15:50;10.50;99.90
15930;DHT22;8064;51.142;4.780;2023-04-24T01:18:15;10.50;99.90
15930;DHT22;8064;51.142;4.780;2023-04-24T01:20:42;10.50;99.90
15930;DHT22;8064;51.142;4.780;2023-04-24T01:23:10;10.50;99.90
15930;DHT22;8064;51.142;4.780;2023-04-24T01:25:37;10.50;99.90
15930;DHT22;8064;51.142;4.780;2023-04-24T01:28:03;10.50;99.90
15930;DHT22;8064;51.142;4.780;2023-04-24T01:30:30;10.50;99.90
15930;DHT22;8064;51.142;4.780;2023-04-24T01:32:56;10.50;99.90
15930;DHT22;8064;51.142;4.780;2023-04-24T01:35:22;10.50;99.90
15930;DHT22;8064;51.142;4.780;2023-04-24T01:37:48;10.50;99.90
15930;DHT22;8064;51.142;4.780;2023-04-24T01:40:14;10.50;99.90
15930;DHT22;8064;51.142;4.780;2023-04-24T01:42:41;10.40;99.90
15930;DHT22;8064;51.142;4.780;2023-04-24T01:45:10;10.40;99.90
15930;DHT22;8064;51.142;4.780;2023-04-24T01:47:36;10.40;99.90
15930;DHT22;8064;51.142;4.780;2023-04-24T01:50:04;10.40;99.90
15930;DHT22;8064;51.142;4.780;2023-04-24T01:52:30;10.40;99.90
15930;DHT22;8064;51.142;4.780;2023-04-24T01:55:00;10.40;99.90
15930;DHT22;8064;51.142;4.780;2023-04-24T01:57:26;10.40;99.90
15930;DHT22;8064;51.142;4.780;2023-04-24T01:59:52;10.40;99.90
15930;DHT22;8064;51.142;4.780;2023-04-24T02:02:18;10.40;99.90
15930;DHT22;8064;51.142;4.780;2023-04-24T02:04:43;10.40;99.90
15930;DHT22;8064;51.142;4.780;2023-04-24T02:07:09;10.40;99.90
15930;DHT22;8064;51.142;4.780;2023-04-24T02:09:35;10.30;99.90
15930;DHT22;8064;51.142;4.780;2023-04-24T02:12:01;10.40;99.90
15930;DHT22;8064;51.142;4.780;2023-04-24T02:14:27;10.30;99.90
15930;DHT22;8064;51.142;4.780;2023-04-24T02:16:52;10.30;99.90
15930;DHT22;8064;51.142;4.780;2023-04-24T02:19:19;10.30;99.90
15930;DHT22;8064;51.142;4.780;2023-04-24T02:21:45;10.30;99.90
15930;DHT22;8064;51.142;4.780;2023-04-24T02:24:10;10.30;99.90
15930;DHT22;8064;51.142;4.780;2023-04-24T02:26:36;10.30;99.90
15930;DHT22;8064;51.142;4.780;2023-04-24T02:29:02;10.30;99.90
15930;DHT22;8064;51.142;4.780;2023-04-24T02:31:28;10.30;99.90
15930;DHT22;8064;51.142;4.780;2023-04-24T02:33:53;10.30;99.90
15930;DHT22;8064;51.142;4.780;2023-04-24T02:36:19;10.30;99.90
15930;DHT22;8064;51.142;4.780;2023-04-24T02:38:45;10.30;99.90
15930;DHT22;8064;51.142;4.780;2023-04-24T02:41:11;10.30;99.90
15930;DHT22;8064;51.142;4.780;2023-04-24T02:43:37;10.20;99.90
15930;DHT22;8064;51.142;4.780;2023-04-24T02:46:02;10.20;99.90
15930;DHT22;8064;51.142;4.780;2023-04-24T02:48:28;10.20;99.90
15930;DHT22;8064;51.142;4.780;2023-04-24T02:50:54;10.20;99.90
15930;DHT22;8064;51.142;4.780;2023-04-24T02:53:20;10.20;99.90
15930;DHT22;8064;51.142;4.780;2023-04-24T02:55:45;10.10;99.90
15930;DHT22;8064;51.142;4.780;2023-04-24T02:58:11;10.10;99.90
15930;DHT22;8064;51.142;4.780;2023-04-24T03:00:38;10.10;99.90
15930;DHT22;8064;51.142;4.780;2023-04-24T03:03:05;10.00;99.90
15930;DHT22;8064;51.142;4.780;2023-04-24T03:05:31;10.00;99.90
15930;DHT22;8064;51.142;4.780;2023-04-24T03:07:57;10.00;99.90
15930;DHT22;8064;51.142;4.780;2023-04-24T03:10:22;9.90;99.90
15930;DHT22;8064;51.142;4.780;2023-04-24T03:12:48;9.90;99.90
15930;DHT22;8064;51.142;4.780;2023-04-24T03:15:14;9.90;99.90
15930;DHT22;8064;51.142;4.780;2023-04-24T03:17:40;9.90;99.90
15930;DHT22;8064;51.142;4.780;2023-04-24T03:20:07;9.90;99.90
15930;DHT22;8064;51.142;4.780;2023-04-24T03:22:34;9.90;99.90
15930;DHT22;8064;51.142;4.780;2023-04-24T03:25:00;9.90;99.90
15930;DHT22;8064;51.142;4.780;2023-04-24T03:27:26;9.90;99.90
15930;DHT22;8064;51.142;4.780;2023-04-24T03:29:52;9.90;99.90
15930;DHT22;8064;51.142;4.780;2023-04-24T03:32:21;9.90;99.90
15930;DHT22;8064;51.142;4.780;2023-04-24T03:34:48;9.80;99.90
15930;DHT22;8064;51.142;4.780;2023-04-24T03:37:14;9.80;99.90
15930;DHT22;8064;51.142;4.780;2023-04-24T03:39:40;9.80;99.90
15930;DHT22;8064;51.142;4.780;2023-04-24T03:42:06;9.70;99.90
15930;DHT22;8064;51.142;4.780;2023-04-24T03:44:32;9.70;99.90
15930;DHT22;8064;51.142;4.780;2023-04-24T03:46:58;9.70;99.90
15930;DHT22;8064;51.142;4.780;2023-04-24T03:49:24;9.70;99.90
15930;DHT22;8064;51.142;4.780;2023-04-24T03:51:50;9.70;99.90
15930;DHT22;8064;51.142;4.780;2023-04-24T03:54:16;9.70;99.90
15930;DHT22;8064;51.142;4.780;2023-04-24T03:56:42;9.60;99.90
15930;DHT22;8064;51.142;4.780;2023-04-24T03:59:07;9.60;99.90
15930;DHT22;8064;51.142;4.780;2023-04-24T04:01:33;9.60;99.90
15930;DHT22;8064;51.142;4.780;2023-04-24T04:04:03;9.60;99.90
15930;DHT22;8064;51.142;4.780;2023-04-24T04:06:29;9.60;99.90
15930;DHT22;8064;51.142;4.780;2023-04-24T04:08:57;9.70;99.90
15930;DHT22;8064;51.142;4.780;2023-04-24T04:11:23;9.60;99.90
15930;DHT22;8064;51.142;4.780;2023-04-24T04:13:49;9.60;99.90
15930;DHT22;8064;51.142;4.780;2023-04-24T04:16:15;9.60;99.90
15930;DHT22;8064;51.142;4.780;2023-04-24T04:18:50;9.70;99.90
15930;DHT22;8064;51.142;4.780;2023-04-24T04:21:16;9.70;99.90
15930;DHT22;8064;51.142;4.780;2023-04-24T04:23:42;9.60;99.90
15930;DHT22;8064;51.142;4.780;2023-04-24T04:26:08;9.60;99.90
15930;DHT22;8064;51.142;4.780;2023-04-24T04:28:33;9.60;99.90
15930;DHT22;8064;51.142;4.780;2023-04-24T04:31:00;9.60;99.90
15930;DHT22;8064;51.142;4.780;2023-04-24T04:33:26;9.60;99.90
15930;DHT22;8064;51.142;4.780;2023-04-24T04:35:52;9.60;99.90
15930;DHT22;8064;51.142;4.780;2023-04-24T04:38:19;9.60;99.90
15930;DHT22;8064;51.142;4.780;2023-04-24T04:40:45;9.60;99.90
15930;DHT22;8064;51.142;4.780;2023-04-24T04:43:11;9.60;99.90
15930;DHT22;8064;51.142;4.780;2023-04-24T04:45:39;9.60;99.90
15930;DHT22;8064;51.142;4.780;2023-04-24T04:48:06;9.60;99.90
15930;DHT22;8064;51.142;4.780;2023-04-24T04:50:35;9.60;99.90
15930;DHT22;8064;51.142;4.780;2023-04-24T04:53:00;9.60;99.90
15930;DHT22;8064;51.142;4.780;2023-04-24T04:55:26;9.60;99.90
15930;DHT22;8064;51.142;4.780;2023-04-24T04:57:52;9.60;99.90
15930;DHT22;8064;51.142;4.780;2023-04-24T05:00:18;9.60;99.90
15930;DHT22;8064;51.142;4.780;2023-04-24T05:02:44;9.60;99.90
15930;DHT22;8064;51.142;4.780;2023-04-24T05:05:10;9.60;99.90
15930;DHT22;8064;51.142;4.780;2023-04-24T05:07:36;9.60;99.90
15930;DHT22;8064;51.142;4.780;2023-04-24T05:10:03;9.60;99.90
15930;DHT22;8064;51.142;4.780;2023-04-24T05:12:28;9.60;99.90
15930;DHT22;8064;51.142;4.780;2023-04-24T05:14:54;9.60;99.90
15930;DHT22;8064;51.142;4.780;2023-04-24T05:17:21;9.60;99.90
15930;DHT22;8064;51.142;4.780;2023-04-24T05:19:47;9.60;99.90
15930;DHT22;8064;51.142;4.780;2023-04-24T05:22:13;9.60;99.90
15930;DHT22;8064;51.142;4.780;2023-04-24T05:24:39;9.60;99.90
15930;DHT22;8064;51.142;4.780;2023-04-24T05:27:05;9.60;99.90
15930;DHT22;8064;51.142;4.780;2023-04-24T05:29:31;9.60;99.90
15930;DHT22;8064;51.142;4.780;2023-04-24T05:31:58;9.60;99.90
15930;DHT22;8064;51.142;4.780;2023-04-24T05:34:24;9.60;99.90
15930;DHT22;8064;51.142;4.780;2023-04-24T05:36:51;9.60;99.90
15930;DHT22;8064;51.142;4.780;2023-04-24T05:39:17;9.60;99.90
15930;DHT22;8064;51.142;4.780;2023-04-24T05:41:43;9.60;99.90
15930;DHT22;8064;51.142;4.780;2023-04-24T05:44:09;9.60;99.90
15930;DHT22;8064;51.142;4.780;2023-04-24T05:46:35;9.60;99.90
15930;DHT22;8064;51.142;4.780;2023-04-24T05:49:01;9.60;99.90
15930;DHT22;8064;51.142;4.780;2023-04-24T05:51:28;9.60;99.90
15930;DHT22;8064;51.142;4.780;2023-04-24T05:53:54;9.60;99.90
15930;DHT22;8064;51.142;4.780;2023-04-24T05:56:20;9.60;99.90
15930;DHT22;8064;51.142;4.780;2023-04-24T05:58:46;9.60;99.90
15930;DHT22;8064;51.142;4.780;2023-04-24T06:01:13;9.60;99.90
15930;DHT22;8064;51.142;4.780;2023-04-24T06:03:40;9.60;99.90
15930;DHT22;8064;51.142;4.780;2023-04-24T06:06:07;9.60;99.90
15930;DHT22;8064;51.142;4.780;2023-04-24T06:08:34;9.60;99.90
15930;DHT22;8064;51.142;4.780;2023-04-24T06:11:00;9.60;99.90
15930;DHT22;8064;51.142;4.780;2023-04-24T06:13:26;9.60;99.90
15930;DHT22;8064;51.142;4.780;2023-04-24T06:15:52;9.60;99.90
15930;DHT22;8064;51.142;4.780;2023-04-24T06:18:18;9.60;99.90
15930;DHT22;8064;51.142;4.780;2023-04-24T06:20:45;9.60;99.90
15930;DHT22;8064;51.142;4.780;2023-04-24T06:23:11;9.60;99.90
15930;DHT22;8064;51.142;4.780;2023-04-24T06:25:38;9.60;99.90
15930;DHT22;8064;51.142;4.780;2023-04-24T06:28:04;9.60;99.90
15930;DHT22;8064;51.142;4.780;2023-04-24T06:30:30;9.70;99.90
15930;DHT22;8064;51.142;4.780;2023-04-24T06:32:56;9.70;99.90
15930;DHT22;8064;51.142;4.780;2023-04-24T06:35:22;9.70;99.90
15930;DHT22;8064;51.142;4.780;2023-04-24T06:37:48;9.70;99.90
15930;DHT22;8064;51.142;4.780;2023-04-24T06:40:14;9.70;99.90
15930;DHT22;8064;51.142;4.780;2023-04-24T06:42:40;9.70;99.90
15930;DHT22;8064;51.142;4.780;2023-04-24T06:45:06;9.70;99.90
15930;DHT22;8064;51.142;4.780;2023-04-24T06:47:31;9.80;99.90
15930;DHT22;8064;51.142;4.780;2023-04-24T06:49:57;9.80;99.90
15930;DHT22;8064;51.142;4.780;2023-04-24T06:52:23;9.80;99.90
15930;DHT22;8064;51.142;4.780;2023-04-24T06:54:50;9.80;99.90
15930;DHT22;8064;51.142;4.780;2023-04-24T06:57:17;9.90;99.90
15930;DHT22;8064;51.142;4.780;2023-04-24T06:59:42;9.90;99.90
15930;DHT22;8064;51.142;4.780;2023-04-24T07:02:08;10.00;99.90
15930;DHT22;8064;51.142;4.780;2023-04-24T07:04:34;10.00;99.90
15930;DHT22;8064;51.142;4.780;2023-04-24T07:07:00;10.00;99.90
15930;DHT22;8064;51.142;4.780;2023-04-24T07:09:26;10.00;99.90
15930;DHT22;8064;51.142;4.780;2023-04-24T07:11:52;10.00;99.90
15930;DHT22;8064;51.142;4.780;2023-04-24T07:14:19;10.00;99.90
15930;DHT22;8064;51.142;4.780;2023-04-24T07:16:45;10.00;99.90
15930;DHT22;8064;51.142;4.780;2023-04-24T07:19:11;10.00;99.90
15930;DHT22;8064;51.142;4.780;2023-04-24T07:21:37;10.00;99.90
15930;DHT22;8064;51.142;4.780;2023-04-24T07:24:03;10.00;99.90
15930;DHT22;8064;51.142;4.780;2023-04-24T07:26:29;10.00;99.90
15930;DHT22;8064;51.142;4.780;2023-04-24T07:28:55;10.00;99.90
15930;DHT22;8064;51.142;4.780;2023-04-24T07:31:21;10.00;99.90
15930;DHT22;8064;51.142;4.780;2023-04-24T07:33:47;10.00;99.90
15930;DHT22;8064;51.142;4.780;2023-04-24T07:36:13;10.00;99.90
15930;DHT22;8064;51.142;4.780;2023-04-24T07:38:45;10.00;99.90
15930;DHT22;8064;51.142;4.780;2023-04-24T07:41:12;10.00;99.90
15930;DHT22;8064;51.142;4.780;2023-04-24T07:43:38;10.10;99.90
15930;DHT22;8064;51.142;4.780;2023-04-24T07:46:04;10.10;99.90
15930;DHT22;8064;51.142;4.780;2023-04-24T07:48:29;10.10;99.90
15930;DHT22;8064;51.142;4.780;2023-04-24T07:50:55;10.20;99.90
15930;DHT22;8064;51.142;4.780;2023-04-24T07:53:21;10.30;99.90
15930;DHT22;8064;51.142;4.780;2023-04-24T07:55:47;10.40;99.90
15930;DHT22;8064;51.142;4.780;2023-04-24T07:58:13;10.40;99.90
15930;DHT22;8064;51.142;4.780;2023-04-24T08:00:38;10.50;99.90
15930;DHT22;8064;51.142;4.780;2023-04-24T08:03:04;10.50;99.90
15930;DHT22;8064;51.142;4.780;2023-04-24T08:05:30;10.60;99.90
15930;DHT22;8064;51.142;4.780;2023-04-24T08:07:56;10.70;99.90
15930;DHT22;8064;51.142;4.780;2023-04-24T08:10:23;10.80;99.90
15930;DHT22;8064;51.142;4.780;2023-04-24T08:12:49;10.90;99.90
15930;DHT22;8064;51.142;4.780;2023-04-24T08:15:15;11.10;99.90
15930;DHT22;8064;51.142;4.780;2023-04-24T08:17:41;11.20;99.90
15930;DHT22;8064;51.142;4.780;2023-04-24T08:20:08;11.30;99.90
15930;DHT22;8064;51.142;4.780;2023-04-24T08:22:40;11.40;99.90
15930;DHT22;8064;51.142;4.780;2023-04-24T08:25:06;11.40;99.90
15930;DHT22;8064;51.142;4.780;2023-04-24T08:27:32;11.40;99.90
15930;DHT22;8064;51.142;4.780;2023-04-24T08:29:58;11.50;99.90
15930;DHT22;8064;51.142;4.780;2023-04-24T08:32:25;11.70;99.90
15930;DHT22;8064;51.142;4.780;2023-04-24T08:34:54;11.80;99.90
15930;DHT22;8064;51.142;4.780;2023-04-24T08:37:22;11.80;99.90
15930;DHT22;8064;51.142;4.780;2023-04-24T08:39:48;11.80;99.90
15930;DHT22;8064;51.142;4.780;2023-04-24T08:42:16;11.80;99.90
15930;DHT22;8064;51.142;4.780;2023-04-24T08:44:43;11.70;99.90
15930;DHT22;8064;51.142;4.780;2023-04-24T08:47:11;11.70;99.90
15930;DHT22;8064;51.142;4.780;2023-04-24T08:49:37;11.60;99.90
15930;DHT22;8064;51.142;4.780;2023-04-24T08:52:05;11.50;99.90
15930;DHT22;8064;51.142;4.780;2023-04-24T08:54:33;11.50;99.90
15930;DHT22;8064;51.142;4.780;2023-04-24T08:57:01;11.40;99.90
15930;DHT22;8064;51.142;4.780;2023-04-24T08:59:29;11.40;99.90
15930;DHT22;8064;51.142;4.780;2023-04-24T09:01:55;11.30;99.90
15930;DHT22;8064;51.142;4.780;2023-04-24T09:04:22;11.30;99.90
15930;DHT22;8064;51.142;4.780;2023-04-24T09:06:52;11.30;99.90
15930;DHT22;8064;51.142;4.780;2023-04-24T09:09:21;11.30;99.90
15930;DHT22;8064;51.142;4.780;2023-04-24T09:11:50;11.30;99.90
15930;DHT22;8064;51.142;4.780;2023-04-24T09:14:16;11.30;99.90
15930;DHT22;8064;51.142;4.780;2023-04-24T09:16:42;11.40;99.90
15930;DHT22;8064;51.142;4.780;2023-04-24T09:19:08;11.50;99.90
15930;DHT22;8064;51.142;4.780;2023-04-24T09:21:35;11.80;99.90
15930;DHT22;8064;51.142;4.780;2023-04-24T09:24:03;12.20;99.90
15930;DHT22;8064;51.142;4.780;2023-04-24T09:26:31;12.40;99.90
15930;DHT22;8064;51.142;4.780;2023-04-24T09:28:58;12.40;99.90
15930;DHT22;8064;51.142;4.780;2023-04-24T09:31:27;12.40;99.90
15930;DHT22;8064;51.142;4.780;2023-04-24T09:34:08;12.30;99.90
15930;DHT22;8064;51.142;4.780;2023-04-24T09:36:36;12.20;99.90
15930;DHT22;8064;51.142;4.780;2023-04-24T09:39:05;12.10;99.90
15930;DHT22;8064;51.142;4.780;2023-04-24T09:41:33;12.10;99.90
15930;DHT22;8064;51.142;4.780;2023-04-24T09:44:16;12.00;99.90
15930;DHT22;8064;51.142;4.780;2023-04-24T09:46:46;11.90;99.90
15930;DHT22;8064;51.142;4.780;2023-04-24T09:49:15;11.80;99.90
15930;DHT22;8064;51.142;4.780;2023-04-24T09:51:42;11.80;99.90
15930;DHT22;8064;51.142;4.780;2023-04-24T09:54:23;11.80;99.90
15930;DHT22;8064;51.142;4.780;2023-04-24T09:56:51;11.80;99.90
15930;DHT22;8064;51.142;4.780;2023-04-24T09:59:19;11.80;99.90
15930;DHT22;8064;51.142;4.780;2023-04-24T10:01:45;11.70;99.90
15930;DHT22;8064;51.142;4.780;2023-04-24T10:04:28;11.70;99.90
15930;DHT22;8064;51.142;4.780;2023-04-24T10:06:56;11.70;99.90
15930;DHT22;8064;51.142;4.780;2023-04-24T10:09:25;11.70;99.90
15930;DHT22;8064;51.142;4.780;2023-04-24T10:11:54;11.80;99.90
15930;DHT22;8064;51.142;4.780;2023-04-24T10:14:23;11.90;99.90
15930;DHT22;8064;51.142;4.780;2023-04-24T10:16:50;12.10;99.90
15930;DHT22;8064;51.142;4.780;2023-04-24T10:19:16;12.50;99.90
15930;DHT22;8064;51.142;4.780;2023-04-24T10:21:44;12.70;99.90
15930;DHT22;8064;51.142;4.780;2023-04-24T10:24:29;12.80;99.90
15930;DHT22;8064;51.142;4.780;2023-04-24T10:26:55;12.70;99.90
15930;DHT22;8064;51.142;4.780;2023-04-24T10:29:22;12.60;99.90
15930;DHT22;8064;51.142;4.780;2023-04-24T10:31:49;12.60;99.90
15930;DHT22;8064;51.142;4.780;2023-04-24T10:34:16;12.70;99.90
15930;DHT22;8064;51.142;4.780;2023-04-24T10:36:50;13.10;99.90
15930;DHT22;8064;51.142;4.780;2023-04-24T10:39:17;13.50;99.90
15930;DHT22;8064;51.142;4.780;2023-04-24T10:41:44;13.90;99.90
15930;DHT22;8064;51.142;4.780;2023-04-24T10:44:13;14.00;99.90
15930;DHT22;8064;51.142;4.780;2023-04-24T10:46:44;14.10;99.90
15930;DHT22;8064;51.142;4.780;2023-04-24T10:49:10;14.10;99.90
15930;DHT22;8064;51.142;4.780;2023-04-24T10:51:50;14.10;99.90
15930;DHT22;8064;51.142;4.780;2023-04-24T10:54:26;14.10;99.90
15930;DHT22;8064;51.142;4.780;2023-04-24T10:56:52;14.00;99.90
15930;DHT22;8064;51.142;4.780;2023-04-24T10:59:37;13.90;99.90
15930;DHT22;8064;51.142;4.780;2023-04-24T11:02:03;13.80;99.90
15930;DHT22;8064;51.142;4.780;2023-04-24T11:04:30;13.70;99.90
15930;DHT22;8064;51.142;4.780;2023-04-24T11:06:57;13.60;99.90
15930;DHT22;8064;51.142;4.780;2023-04-24T11:09:27;13.60;99.90
15930;DHT22;8064;51.142;4.780;2023-04-24T11:12:04;13.60;99.90
15930;DHT22;8064;51.142;4.780;2023-04-24T11:15:02;13.60;99.90
15930;DHT22;8064;51.142;4.780;2023-04-24T11:17:48;13.60;99.90
15930;DHT22;8064;51.142;4.780;2023-04-24T11:20:17;13.60;99.90
15930;DHT22;8064;51.142;4.780;2023-04-24T11:22:43;13.60;99.90
15930;DHT22;8064;51.142;4.780;2023-04-24T11:25:09;13.60;99.90
15930;DHT22;8064;51.142;4.780;2023-04-24T11:27:40;13.70;99.90
15930;DHT22;8064;51.142;4.780;2023-04-24T11:30:06;13.80;99.90
15930;DHT22;8064;51.142;4.780;2023-04-24T11:35:01;14.00;99.90
15930;DHT22;8064;51.142;4.780;2023-04-24T11:40:15;13.90;99.90
15930;DHT22;8064;51.142;4.780;2023-04-24T11:42:42;13.90;99.90
15930;DHT22;8064;51.142;4.780;2023-04-24T11:45:11;14.10;99.90
15930;DHT22;8064;51.142;4.780;2023-04-24T11:47:38;14.20;99.90
15930;DHT22;8064;51.142;4.780;2023-04-24T11:50:07;14.40;99.90
15930;DHT22;8064;51.142;4.780;2023-04-24T11:52:36;14.60;99.90
15930;DHT22;8064;51.142;4.780;2023-04-24T11:55:02;14.70;99.90
15930;DHT22;8064;51.142;4.780;2023-04-24T11:57:29;14.70;99.90
15930;DHT22;8064;51.142;4.780;2023-04-24T12:00:01;14.70;99.50
15930;DHT22;8064;51.142;4.780;2023-04-24T12:02:28;14.70;99.30
15930;DHT22;8064;51.142;4.780;2023-04-24T12:04:54;14.60;99.40
15930;DHT22;8064;51.142;4.780;2023-04-24T12:07:21;14.60;99.40
15930;DHT22;8064;51.142;4.780;2023-04-24T12:09:58;14.60;99.30
15930;DHT22;8064;51.142;4.780;2023-04-24T12:12:26;14.50;99.20
15930;DHT22;8064;51.142;4.780;2023-04-24T12:14:54;14.40;99.10
15930;DHT22;8064;51.142;4.780;2023-04-24T12:17:41;14.40;99.20
15930;DHT22;8064;51.142;4.780;2023-04-24T12:20:08;14.40;99.10
15930;DHT22;8064;51.142;4.780;2023-04-24T12:22:53;14.30;99.10
15930;DHT22;8064;51.142;4.780;2023-04-24T12:25:22;14.20;98.80
15930;DHT22;8064;51.142;4.780;2023-04-24T12:30:43;14.20;99.30
15930;DHT22;8064;51.142;4.780;2023-04-24T12:33:10;14.20;99.20
15930;DHT22;8064;51.142;4.780;2023-04-24T12:35:36;14.30;99.30
15930;DHT22;8064;51.142;4.780;2023-04-24T12:38:22;14.30;99.50
15930;DHT22;8064;51.142;4.780;2023-04-24T12:41:02;14.30;99.50
15930;DHT22;8064;51.142;4.780;2023-04-24T12:43:28;14.30;99.60
15930;DHT22;8064;51.142;4.780;2023-04-24T12:45:54;14.40;99.70
15930;DHT22;8064;51.142;4.780;2023-04-24T12:48:20;14.40;99.70
15930;DHT22;8064;51.142;4.780;2023-04-24T12:50:46;14.40;99.70
15930;DHT22;8064;51.142;4.780;2023-04-24T12:53:12;14.40;99.60
15930;DHT22;8064;51.142;4.780;2023-04-24T12:55:38;14.40;99.50
15930;DHT22;8064;51.142;4.780;2023-04-24T12:58:03;14.40;99.80
15930;DHT22;8064;51.142;4.780;2023-04-24T13:00:29;14.30;99.40
15930;DHT22;8064;51.142;4.780;2023-04-24T13:02:55;14.30;99.40
15930;DHT22;8064;51.142;4.780;2023-04-24T13:05:21;14.20;99.30
15930;DHT22;8064;51.142;4.780;2023-04-24T13:07:47;14.20;99.80
15930;DHT22;8064;51.142;4.780;2023-04-24T13:10:13;14.20;99.80
15930;DHT22;8064;51.142;4.780;2023-04-24T13:12:39;14.30;99.50
15930;DHT22;8064;51.142;4.780;2023-04-24T13:15:06;14.30;99.50
15930;DHT22;8064;51.142;4.780;2023-04-24T13:17:32;14.30;99.20
15930;DHT22;8064;51.142;4.780;2023-04-24T13:19:58;14.30;98.70
15930;DHT22;8064;51.142;4.780;2023-04-24T13:22:24;14.40;98.50
15930;DHT22;8064;51.142;4.780;2023-04-24T13:24:50;14.40;98.30
15930;DHT22;8064;51.142;4.780;2023-04-24T13:27:17;14.40;98.10
15930;DHT22;8064;51.142;4.780;2023-04-24T13:29:43;14.50;98.30
15930;DHT22;8064;51.142;4.780;2023-04-24T13:32:09;14.60;98.40
15930;DHT22;8064;51.142;4.780;2023-04-24T13:34:35;14.70;98.30
15930;DHT22;8064;51.142;4.780;2023-04-24T13:37:02;14.70;98.20
15930;DHT22;8064;51.142;4.780;2023-04-24T13:39:29;14.70;98.00
15930;DHT22;8064;51.142;4.780;2023-04-24T13:41:55;14.60;97.80
15930;DHT22;8064;51.142;4.780;2023-04-24T13:44:22;14.50;97.50
15930;DHT22;8064;51.142;4.780;2023-04-24T13:46:50;14.50;97.10
15930;DHT22;8064;51.142;4.780;2023-04-24T13:49:17;14.40;97.00
15930;DHT22;8064;51.142;4.780;2023-04-24T13:51:43;14.30;96.90
15930;DHT22;8064;51.142;4.780;2023-04-24T13:54:10;14.20;97.00
15930;DHT22;8064;51.142;4.780;2023-04-24T13:56:35;14.30;97.20
15930;DHT22;8064;51.142;4.780;2023-04-24T13:59:01;14.50;97.90
15930;DHT22;8064;51.142;4.780;2023-04-24T14:01:27;14.70;97.60
15930;DHT22;8064;51.142;4.780;2023-04-24T14:03:54;14.80;97.20
15930;DHT22;8064;51.142;4.780;2023-04-24T14:06:21;15.00;97.00
15930;DHT22;8064;51.142;4.780;2023-04-24T14:08:49;15.10;96.60
15930;DHT22;8064;51.142;4.780;2023-04-24T14:11:15;15.10;96.40
15930;DHT22;8064;51.142;4.780;2023-04-24T14:13:42;15.20;96.10
15930;DHT22;8064;51.142;4.780;2023-04-24T14:16:09;15.30;96.00
15930;DHT22;8064;51.142;4.780;2023-04-24T14:18:35;15.30;96.00
15930;DHT22;8064;51.142;4.780;2023-04-24T14:21:02;15.20;95.80
15930;DHT22;8064;51.142;4.780;2023-04-24T14:23:28;15.20;95.70
15930;DHT22;8064;51.142;4.780;2023-04-24T14:25:54;15.10;95.40
15930;DHT22;8064;51.142;4.780;2023-04-24T14:28:20;15.00;95.10
15930;DHT22;8064;51.142;4.780;2023-04-24T14:30:47;14.90;95.00
15930;DHT22;8064;51.142;4.780;2023-04-24T14:33:13;14.80;94.90
15930;DHT22;8064;51.142;4.780;2023-04-24T14:35:40;14.80;94.90
15930;DHT22;8064;51.142;4.780;2023-04-24T14:38:07;14.70;94.80
15930;DHT22;8064;51.142;4.780;2023-04-24T14:40:33;14.70;94.70
15930;DHT22;8064;51.142;4.780;2023-04-24T14:42:59;14.60;94.70
15930;DHT22;8064;51.142;4.780;2023-04-24T14:45:26;14.60;94.70
15930;DHT22;8064;51.142;4.780;2023-04-24T14:47:53;14.50;94.70
15930;DHT22;8064;51.142;4.780;2023-04-24T14:50:19;14.50;94.70
15930;DHT22;8064;51.142;4.780;2023-04-24T14:52:45;14.50;94.70
15930;DHT22;8064;51.142;4.780;2023-04-24T14:55:12;14.50;94.70
15930;DHT22;8064;51.142;4.780;2023-04-24T14:57:38;14.40;94.90
15930;DHT22;8064;51.142;4.780;2023-04-24T15:00:05;14.40;95.00
15930;DHT22;8064;51.142;4.780;2023-04-24T15:02:34;14.50;95.10
15930;DHT22;8064;51.142;4.780;2023-04-24T15:05:02;14.50;95.30
15930;DHT22;8064;51.142;4.780;2023-04-24T15:07:28;14.60;95.30
15930;DHT22;8064;51.142;4.780;2023-04-24T15:09:54;14.70;95.20
15930;DHT22;8064;51.142;4.780;2023-04-24T15:12:20;14.70;95.10
15930;DHT22;8064;51.142;4.780;2023-04-24T15:14:46;14.70;95.10
15930;DHT22;8064;51.142;4.780;2023-04-24T15:17:12;14.60;95.10
15930;DHT22;8064;51.142;4.780;2023-04-24T15:19:38;14.60;95.20
15930;DHT22;8064;51.142;4.780;2023-04-24T15:22:04;14.70;95.70
15930;DHT22;8064;51.142;4.780;2023-04-24T15:24:29;14.80;96.10
15930;DHT22;8064;51.142;4.780;2023-04-24T15:26:55;14.80;96.10
15930;DHT22;8064;51.142;4.780;2023-04-24T15:29:21;14.80;96.20
15930;DHT22;8064;51.142;4.780;2023-04-24T15:31:47;14.70;96.20
15930;DHT22;8064;51.142;4.780;2023-04-24T15:34:12;14.60;96.00
15930;DHT22;8064;51.142;4.780;2023-04-24T15:36:38;14.60;95.80
15930;DHT22;8064;51.142;4.780;2023-04-24T15:39:04;14.60;96.00
15930;DHT22;8064;51.142;4.780;2023-04-24T15:41:30;14.60;96.00
15930;DHT22;8064;51.142;4.780;2023-04-24T15:43:57;14.50;96.00
15930;DHT22;8064;51.142;4.780;2023-04-24T15:46:23;14.60;96.10
15930;DHT22;8064;51.142;4.780;2023-04-24T15:48:50;14.50;96.10
15930;DHT22;8064;51.142;4.780;2023-04-24T15:51:15;14.50;96.20
15930;DHT22;8064;51.142;4.780;2023-04-24T15:53:41;14.60;96.30
15930;DHT22;8064;51.142;4.780;2023-04-24T15:56:08;14.60;96.30